sensor_id;sensor_type;location;lat;lon;timestamp;P1;durP1;ratioP1;P2;durP2;ratioP2
22334;SDS011;11335;43.848;25.958;2023-10-19T00:02:43;6.13;;;3.20;;
22334;SDS011;11335;43.848;25.958;2023-10-19T00:05:29;3.78;;;2.80;;
22334;SDS011;11335;43.848;25.958;2023-10-19T00:08:15;5.65;;;2.70;;
22334;SDS011;11335;43.848;25.958;2023-10-19T00:11:01;7.68;;;3.20;;
22334;SDS011;11335;43.848;25.958;2023-10-19T00:13:48;4.55;;;3.03;;
22334;SDS011;11335;43.848;25.958;2023-10-19T00:16:39;4.47;;;3.17;;
22334;SDS011;11335;43.848;25.958;2023-10-19T00:19:26;5.60;;;3.20;;
22334;SDS011;11335;43.848;25.958;2023-10-19T00:22:13;5.50;;;3.35;;
22334;SDS011;11335;43.848;25.958;2023-10-19T00:25:06;4.63;;;3.17;;
22334;SDS011;11335;43.848;25.958;2023-10-19T00:27:58;8.50;;;4.03;;
22334;SDS011;11335;43.848;25.958;2023-10-19T00:30:46;6.03;;;3.55;;
22334;SDS011;11335;43.848;25.958;2023-10-19T00:33:34;6.72;;;3.40;;
22334;SDS011;11335;43.848;25.958;2023-10-19T00:36:24;4.75;;;3.30;;
22334;SDS011;11335;43.848;25.958;2023-10-19T00:39:10;5.20;;;2.85;;
22334;SDS011;11335;43.848;25.958;2023-10-19T00:42:19;4.45;;;2.80;;
22334;SDS011;11335;43.848;25.958;2023-10-19T00:45:09;4.22;;;2.83;;
22334;SDS011;11335;43.848;25.958;2023-10-19T00:47:58;5.22;;;3.05;;
22334;SDS011;11335;43.848;25.958;2023-10-19T00:50:44;5.32;;;3.20;;
22334;SDS011;11335;43.848;25.958;2023-10-19T00:53:34;5.55;;;3.28;;
22334;SDS011;11335;43.848;25.958;2023-10-19T00:56:20;6.25;;;2.80;;
22334;SDS011;11335;43.848;25.958;2023-10-19T00:59:08;4.35;;;2.90;;
22334;SDS011;11335;43.848;25.958;2023-10-19T01:02:00;5.85;;;3.33;;
22334;SDS011;11335;43.848;25.958;2023-10-19T01:05:04;4.38;;;3.05;;
22334;SDS011;11335;43.848;25.958;2023-10-19T01:07:53;6.25;;;3.35;;
22334;SDS011;11335;43.848;25.958;2023-10-19T01:10:42;4.60;;;3.58;;
22334;SDS011;11335;43.848;25.958;2023-10-19T01:13:30;4.78;;;3.28;;
22334;SDS011;11335;43.848;25.958;2023-10-19T01:16:19;5.90;;;3.38;;
22334;SDS011;11335;43.848;25.958;2023-10-19T01:19:11;8.88;;;3.72;;
22334;SDS011;11335;43.848;25.958;2023-10-19T01:21:56;6.93;;;3.80;;
22334;SDS011;11335;43.848;25.958;2023-10-19T01:24:45;7.55;;;4.32;;
22334;SDS011;11335;43.848;25.958;2023-10-19T01:27:31;6.10;;;4.03;;
22334;SDS011;11335;43.848;25.958;2023-10-19T01:30:17;6.63;;;3.55;;
22334;SDS011;11335;43.848;25.958;2023-10-19T01:33:04;6.50;;;4.13;;
22334;SDS011;11335;43.848;25.958;2023-10-19T01:35:53;7.10;;;4.10;;
22334;SDS011;11335;43.848;25.958;2023-10-19T01:38:57;5.85;;;3.83;;
22334;SDS011;11335;43.848;25.958;2023-10-19T01:41:46;9.95;;;4.15;;
22334;SDS011;11335;43.848;25.958;2023-10-19T01:44:32;8.13;;;4.03;;
22334;SDS011;11335;43.848;25.958;2023-10-19T01:47:21;10.68;;;4.28;;
22334;SDS011;11335;43.848;25.958;2023-10-19T01:50:07;8.57;;;4.80;;
22334;SDS011;11335;43.848;25.958;2023-10-19T01:53:05;8.10;;;4.75;;
22334;SDS011;11335;43.848;25.958;2023-10-19T01:56:00;8.10;;;4.78;;
22334;SDS011;11335;43.848;25.958;2023-10-19T01:58:46;12.38;;;5.10;;
22334;SDS011;11335;43.848;25.958;2023-10-19T02:01:32;9.10;;;5.22;;
22334;SDS011;11335;43.848;25.958;2023-10-19T02:04:18;10.18;;;5.88;;
22334;SDS011;11335;43.848;25.958;2023-10-19T02:07:07;13.93;;;5.60;;
22334;SDS011;11335;43.848;25.958;2023-10-19T02:09:57;11.13;;;6.25;;
22334;SDS011;11335;43.848;25.958;2023-10-19T02:12:43;8.80;;;5.88;;
22334;SDS011;11335;43.848;25.958;2023-10-19T02:15:34;12.30;;;5.93;;
22334;SDS011;11335;43.848;25.958;2023-10-19T02:18:20;15.02;;;5.85;;
22334;SDS011;11335;43.848;25.958;2023-10-19T02:21:06;11.52;;;6.38;;
22334;SDS011;11335;43.848;25.958;2023-10-19T02:23:52;15.43;;;6.20;;
22334;SDS011;11335;43.848;25.958;2023-10-19T02:26:38;12.40;;;5.95;;
22334;SDS011;11335;43.848;25.958;2023-10-19T02:29:23;10.40;;;5.93;;
22334;SDS011;11335;43.848;25.958;2023-10-19T02:32:11;10.20;;;6.05;;
22334;SDS011;11335;43.848;25.958;2023-10-19T02:34:57;9.80;;;5.63;;
22334;SDS011;11335;43.848;25.958;2023-10-19T02:37:42;11.35;;;6.35;;
22334;SDS011;11335;43.848;25.958;2023-10-19T02:40:29;12.88;;;6.50;;
22334;SDS011;11335;43.848;25.958;2023-10-19T02:43:16;13.15;;;6.40;;
22334;SDS011;11335;43.848;25.958;2023-10-19T02:46:02;12.95;;;7.40;;
22334;SDS011;11335;43.848;25.958;2023-10-19T02:48:49;16.60;;;7.45;;
22334;SDS011;11335;43.848;25.958;2023-10-19T02:51:35;15.70;;;8.15;;
22334;SDS011;11335;43.848;25.958;2023-10-19T02:54:22;12.98;;;8.05;;
22334;SDS011;11335;43.848;25.958;2023-10-19T02:57:09;17.48;;;8.57;;
22334;SDS011;11335;43.848;25.958;2023-10-19T02:59:58;15.20;;;8.60;;
22334;SDS011;11335;43.848;25.958;2023-10-19T03:02:44;14.95;;;8.90;;
22334;SDS011;11335;43.848;25.958;2023-10-19T03:05:30;19.38;;;9.50;;
22334;SDS011;11335;43.848;25.958;2023-10-19T03:08:16;19.50;;;9.80;;
22334;SDS011;11335;43.848;25.958;2023-10-19T03:11:04;21.05;;;9.70;;
22334;SDS011;11335;43.848;25.958;2023-10-19T03:13:49;21.42;;;10.68;;
22334;SDS011;11335;43.848;25.958;2023-10-19T03:16:36;19.08;;;9.82;;
22334;SDS011;11335;43.848;25.958;2023-10-19T03:19:21;15.13;;;9.20;;
22334;SDS011;11335;43.848;25.958;2023-10-19T03:22:07;16.55;;;8.70;;
22334;SDS011;11335;43.848;25.958;2023-10-19T03:24:54;19.15;;;8.38;;
22334;SDS011;11335;43.848;25.958;2023-10-19T03:28:05;16.50;;;9.07;;
22334;SDS011;11335;43.848;25.958;2023-10-19T03:30:53;17.58;;;8.23;;
22334;SDS011;11335;43.848;25.958;2023-10-19T03:33:40;25.83;;;9.38;;
22334;SDS011;11335;43.848;25.958;2023-10-19T03:36:26;14.52;;;8.43;;
22334;SDS011;11335;43.848;25.958;2023-10-19T03:39:12;17.95;;;9.25;;
22334;SDS011;11335;43.848;25.958;2023-10-19T03:41:58;13.27;;;8.23;;
22334;SDS011;11335;43.848;25.958;2023-10-19T03:44:43;14.35;;;8.70;;
22334;SDS011;11335;43.848;25.958;2023-10-19T03:47:35;18.67;;;9.88;;
22334;SDS011;11335;43.848;25.958;2023-10-19T03:50:21;15.30;;;8.70;;
22334;SDS011;11335;43.848;25.958;2023-10-19T03:53:07;14.60;;;8.45;;
22334;SDS011;11335;43.848;25.958;2023-10-19T03:55:52;16.10;;;7.57;;
22334;SDS011;11335;43.848;25.958;2023-10-19T03:58:40;14.18;;;7.13;;
22334;SDS011;11335;43.848;25.958;2023-10-19T04:01:28;12.52;;;6.65;;
22334;SDS011;11335;43.848;25.958;2023-10-19T04:04:16;8.63;;;5.40;;
22334;SDS011;11335;43.848;25.958;2023-10-19T04:07:02;12.38;;;6.60;;
22334;SDS011;11335;43.848;25.958;2023-10-19T04:09:56;8.65;;;6.18;;
22334;SDS011;11335;43.848;25.958;2023-10-19T04:13:02;10.02;;;6.10;;
22334;SDS011;11335;43.848;25.958;2023-10-19T04:15:48;11.63;;;7.07;;
22334;SDS011;11335;43.848;25.958;2023-10-19T04:18:35;16.20;;;7.80;;
22334;SDS011;11335;43.848;25.958;2023-10-19T04:21:25;14.45;;;7.90;;
22334;SDS011;11335;43.848;25.958;2023-10-19T04:24:10;16.25;;;8.30;;
22334;SDS011;11335;43.848;25.958;2023-10-19T04:26:56;17.33;;;8.70;;
22334;SDS011;11335;43.848;25.958;2023-10-19T04:29:44;16.80;;;9.30;;
22334;SDS011;11335;43.848;25.958;2023-10-19T04:32:30;18.23;;;9.30;;
22334;SDS011;11335;43.848;25.958;2023-10-19T04:35:17;20.33;;;9.15;;
22334;SDS011;11335;43.848;25.958;2023-10-19T04:38:08;16.98;;;8.95;;
22334;SDS011;11335;43.848;25.958;2023-10-19T04:40:54;15.13;;;9.50;;
22334;SDS011;11335;43.848;25.958;2023-10-19T04:43:40;19.75;;;10.02;;
22334;SDS011;11335;43.848;25.958;2023-10-19T04:46:28;19.20;;;9.27;;
22334;SDS011;11335;43.848;25.958;2023-10-19T04:49:14;21.90;;;9.70;;
22334;SDS011;11335;43.848;25.958;2023-10-19T04:52:01;21.00;;;10.52;;
22334;SDS011;11335;43.848;25.958;2023-10-19T04:54:48;25.17;;;11.65;;
22334;SDS011;11335;43.848;25.958;2023-10-19T04:57:34;24.23;;;11.60;;
22334;SDS011;11335;43.848;25.958;2023-10-19T05:00:20;22.35;;;12.38;;
22334;SDS011;11335;43.848;25.958;2023-10-19T05:03:06;25.02;;;11.80;;
22334;SDS011;11335;43.848;25.958;2023-10-19T05:05:52;27.90;;;11.68;;
22334;SDS011;11335;43.848;25.958;2023-10-19T05:08:38;20.30;;;10.43;;
22334;SDS011;11335;43.848;25.958;2023-10-19T05:11:23;20.45;;;10.02;;
22334;SDS011;11335;43.848;25.958;2023-10-19T05:14:09;16.25;;;9.27;;
22334;SDS011;11335;43.848;25.958;2023-10-19T05:16:54;20.15;;;9.75;;
22334;SDS011;11335;43.848;25.958;2023-10-19T05:19:40;22.42;;;10.27;;
22334;SDS011;11335;43.848;25.958;2023-10-19T05:22:25;15.98;;;10.10;;
22334;SDS011;11335;43.848;25.958;2023-10-19T05:25:14;24.60;;;11.90;;
22334;SDS011;11335;43.848;25.958;2023-10-19T05:28:00;24.55;;;11.93;;
22334;SDS011;11335;43.848;25.958;2023-10-19T05:30:46;21.20;;;12.13;;
22334;SDS011;11335;43.848;25.958;2023-10-19T05:33:31;20.73;;;10.60;;
22334;SDS011;11335;43.848;25.958;2023-10-19T05:36:18;18.90;;;10.73;;
22334;SDS011;11335;43.848;25.958;2023-10-19T05:39:03;17.35;;;10.68;;
22334;SDS011;11335;43.848;25.958;2023-10-19T05:41:56;17.90;;;9.23;;
22334;SDS011;11335;43.848;25.958;2023-10-19T05:44:43;16.70;;;9.15;;
22334;SDS011;11335;43.848;25.958;2023-10-19T05:47:29;14.98;;;8.75;;
22334;SDS011;11335;43.848;25.958;2023-10-19T05:50:15;18.05;;;8.43;;
22334;SDS011;11335;43.848;25.958;2023-10-19T05:53:03;13.30;;;8.65;;
22334;SDS011;11335;43.848;25.958;2023-10-19T05:55:51;12.02;;;8.02;;
22334;SDS011;11335;43.848;25.958;2023-10-19T05:58:36;18.10;;;8.50;;
22334;SDS011;11335;43.848;25.958;2023-10-19T06:01:23;16.90;;;8.43;;
22334;SDS011;11335;43.848;25.958;2023-10-19T06:04:08;17.40;;;7.80;;
22334;SDS011;11335;43.848;25.958;2023-10-19T06:06:56;13.13;;;7.40;;
22334;SDS011;11335;43.848;25.958;2023-10-19T06:09:42;16.27;;;6.90;;
22334;SDS011;11335;43.848;25.958;2023-10-19T06:12:27;11.35;;;7.45;;
22334;SDS011;11335;43.848;25.958;2023-10-19T06:15:14;8.85;;;5.30;;
22334;SDS011;11335;43.848;25.958;2023-10-19T06:18:00;12.90;;;5.90;;
22334;SDS011;11335;43.848;25.958;2023-10-19T06:20:46;7.63;;;5.45;;
22334;SDS011;11335;43.848;25.958;2023-10-19T06:23:32;10.65;;;5.22;;
22334;SDS011;11335;43.848;25.958;2023-10-19T06:26:18;8.35;;;5.05;;
22334;SDS011;11335;43.848;25.958;2023-10-19T06:29:03;9.20;;;6.40;;
22334;SDS011;11335;43.848;25.958;2023-10-19T06:31:50;16.10;;;7.63;;
22334;SDS011;11335;43.848;25.958;2023-10-19T06:34:36;15.30;;;7.00;;
22334;SDS011;11335;43.848;25.958;2023-10-19T06:37:21;13.73;;;7.65;;
22334;SDS011;11335;43.848;25.958;2023-10-19T06:40:07;12.85;;;6.97;;
22334;SDS011;11335;43.848;25.958;2023-10-19T06:42:56;13.13;;;7.00;;
22334;SDS011;11335;43.848;25.958;2023-10-19T06:45:43;11.32;;;6.57;;
22334;SDS011;11335;43.848;25.958;2023-10-19T06:48:30;12.43;;;7.10;;
22334;SDS011;11335;43.848;25.958;2023-10-19T06:51:16;15.02;;;8.30;;
22334;SDS011;11335;43.848;25.958;2023-10-19T06:54:02;14.13;;;8.40;;
22334;SDS011;11335;43.848;25.958;2023-10-19T06:56:48;13.25;;;7.90;;
22334;SDS011;11335;43.848;25.958;2023-10-19T06:59:35;13.15;;;7.70;;
22334;SDS011;11335;43.848;25.958;2023-10-19T07:02:21;16.83;;;8.43;;
22334;SDS011;11335;43.848;25.958;2023-10-19T07:05:06;16.50;;;8.38;;
22334;SDS011;11335;43.848;25.958;2023-10-19T07:07:56;14.38;;;8.60;;
22334;SDS011;11335;43.848;25.958;2023-10-19T07:10:42;18.15;;;9.43;;
22334;SDS011;11335;43.848;25.958;2023-10-19T07:13:28;16.20;;;8.90;;
22334;SDS011;11335;43.848;25.958;2023-10-19T07:16:16;14.70;;;8.38;;
22334;SDS011;11335;43.848;25.958;2023-10-19T07:19:03;19.33;;;9.05;;
22334;SDS011;11335;43.848;25.958;2023-10-19T07:21:50;23.27;;;8.82;;
22334;SDS011;11335;43.848;25.958;2023-10-19T07:24:42;16.08;;;7.30;;
22334;SDS011;11335;43.848;25.958;2023-10-19T07:27:28;20.67;;;7.78;;
22334;SDS011;11335;43.848;25.958;2023-10-19T07:30:14;9.60;;;6.57;;
22334;SDS011;11335;43.848;25.958;2023-10-19T07:33:00;15.07;;;6.45;;
22334;SDS011;11335;43.848;25.958;2023-10-19T07:35:50;18.40;;;7.53;;
22334;SDS011;11335;43.848;25.958;2023-10-19T07:38:45;10.60;;;6.45;;
22334;SDS011;11335;43.848;25.958;2023-10-19T07:41:32;8.02;;;6.13;;
22334;SDS011;11335;43.848;25.958;2023-10-19T07:44:21;9.95;;;6.60;;
22334;SDS011;11335;43.848;25.958;2023-10-19T07:47:07;9.55;;;5.95;;
22334;SDS011;11335;43.848;25.958;2023-10-19T07:49:54;12.30;;;7.13;;
22334;SDS011;11335;43.848;25.958;2023-10-19T07:52:45;8.73;;;6.60;;
22334;SDS011;11335;43.848;25.958;2023-10-19T07:55:34;18.70;;;8.90;;
22334;SDS011;11335;43.848;25.958;2023-10-19T07:58:20;11.35;;;7.50;;
22334;SDS011;11335;43.848;25.958;2023-10-19T08:01:05;12.02;;;7.85;;
22334;SDS011;11335;43.848;25.958;2023-10-19T08:03:51;11.98;;;6.55;;
22334;SDS011;11335;43.848;25.958;2023-10-19T08:06:37;8.50;;;6.20;;
22334;SDS011;11335;43.848;25.958;2023-10-19T08:09:23;8.77;;;5.80;;
22334;SDS011;11335;43.848;25.958;2023-10-19T08:12:09;8.38;;;6.30;;
22334;SDS011;11335;43.848;25.958;2023-10-19T08:14:55;9.85;;;5.93;;
22334;SDS011;11335;43.848;25.958;2023-10-19T08:17:42;9.18;;;5.50;;
22334;SDS011;11335;43.848;25.958;2023-10-19T08:20:28;12.80;;;6.18;;
22334;SDS011;11335;43.848;25.958;2023-10-19T08:23:17;8.20;;;5.97;;
22334;SDS011;11335;43.848;25.958;2023-10-19T08:26:08;8.70;;;5.70;;
22334;SDS011;11335;43.848;25.958;2023-10-19T08:28:54;8.80;;;6.13;;
22334;SDS011;11335;43.848;25.958;2023-10-19T08:31:40;7.93;;;6.22;;
22334;SDS011;11335;43.848;25.958;2023-10-19T08:34:26;8.02;;;5.88;;
22334;SDS011;11335;43.848;25.958;2023-10-19T08:37:11;13.13;;;6.20;;
22334;SDS011;11335;43.848;25.958;2023-10-19T08:39:59;8.55;;;6.32;;
22334;SDS011;11335;43.848;25.958;2023-10-19T08:42:45;9.70;;;6.03;;
22334;SDS011;11335;43.848;25.958;2023-10-19T08:45:31;7.40;;;5.90;;
22334;SDS011;11335;43.848;25.958;2023-10-19T08:48:19;13.38;;;6.90;;
22334;SDS011;11335;43.848;25.958;2023-10-19T08:51:08;8.73;;;6.82;;
22334;SDS011;11335;43.848;25.958;2023-10-19T08:53:55;7.80;;;6.03;;
22334;SDS011;11335;43.848;25.958;2023-10-19T08:56:41;10.25;;;6.03;;
22334;SDS011;11335;43.848;25.958;2023-10-19T08:59:27;7.97;;;6.25;;
22334;SDS011;11335;43.848;25.958;2023-10-19T09:02:14;8.40;;;6.03;;
22334;SDS011;11335;43.848;25.958;2023-10-19T09:05:07;15.32;;;5.93;;
22334;SDS011;11335;43.848;25.958;2023-10-19T09:07:53;11.30;;;5.78;;
22334;SDS011;11335;43.848;25.958;2023-10-19T09:10:42;10.10;;;6.60;;
22334;SDS011;11335;43.848;25.958;2023-10-19T09:13:32;8.20;;;6.03;;
22334;SDS011;11335;43.848;25.958;2023-10-19T09:16:27;8.38;;;6.00;;
22334;SDS011;11335;43.848;25.958;2023-10-19T09:19:13;10.70;;;6.30;;
22334;SDS011;11335;43.848;25.958;2023-10-19T09:21:59;8.10;;;6.10;;
22334;SDS011;11335;43.848;25.958;2023-10-19T09:24:45;7.28;;;5.60;;
22334;SDS011;11335;43.848;25.958;2023-10-19T09:27:31;9.65;;;7.75;;
22334;SDS011;11335;43.848;25.958;2023-10-19T09:30:19;13.73;;;7.72;;
22334;SDS011;11335;43.848;25.958;2023-10-19T09:33:05;8.05;;;5.68;;
22334;SDS011;11335;43.848;25.958;2023-10-19T09:35:52;11.27;;;6.82;;
22334;SDS011;11335;43.848;25.958;2023-10-19T09:38:46;8.35;;;5.90;;
22334;SDS011;11335;43.848;25.958;2023-10-19T09:41:36;6.82;;;6.10;;
22334;SDS011;11335;43.848;25.958;2023-10-19T09:44:23;17.30;;;6.47;;
22334;SDS011;11335;43.848;25.958;2023-10-19T09:50:11;6.25;;;5.55;;
22334;SDS011;11335;43.848;25.958;2023-10-19T09:52:56;7.72;;;5.53;;
22334;SDS011;11335;43.848;25.958;2023-10-19T09:55:43;8.73;;;5.20;;
22334;SDS011;11335;43.848;25.958;2023-10-19T09:58:38;7.80;;;4.70;;
22334;SDS011;11335;43.848;25.958;2023-10-19T10:01:26;6.35;;;4.57;;
22334;SDS011;11335;43.848;25.958;2023-10-19T10:04:28;8.00;;;4.50;;
22334;SDS011;11335;43.848;25.958;2023-10-19T10:07:16;6.20;;;4.40;;
22334;SDS011;11335;43.848;25.958;2023-10-19T10:10:03;5.10;;;4.22;;
22334;SDS011;11335;43.848;25.958;2023-10-19T10:12:50;7.25;;;4.30;;
22334;SDS011;11335;43.848;25.958;2023-10-19T10:15:40;6.15;;;4.22;;
22334;SDS011;11335;43.848;25.958;2023-10-19T10:18:35;7.43;;;4.47;;
22334;SDS011;11335;43.848;25.958;2023-10-19T10:21:21;6.85;;;3.80;;
22334;SDS011;11335;43.848;25.958;2023-10-19T10:24:07;4.47;;;3.60;;
22334;SDS011;11335;43.848;25.958;2023-10-19T10:26:57;4.80;;;3.97;;
22334;SDS011;11335;43.848;25.958;2023-10-19T10:29:56;4.97;;;4.20;;
22334;SDS011;11335;43.848;25.958;2023-10-19T10:32:50;5.43;;;4.30;;
22334;SDS011;11335;43.848;25.958;2023-10-19T10:38:26;4.63;;;3.67;;
22334;SDS011;11335;43.848;25.958;2023-10-19T10:41:25;4.28;;;3.53;;
22334;SDS011;11335;43.848;25.958;2023-10-19T10:44:14;5.97;;;3.15;;
22334;SDS011;11335;43.848;25.958;2023-10-19T10:46:59;6.38;;;3.60;;
22334;SDS011;11335;43.848;25.958;2023-10-19T10:49:49;4.65;;;3.30;;
22334;SDS011;11335;43.848;25.958;2023-10-19T10:52:35;3.92;;;3.10;;
22334;SDS011;11335;43.848;25.958;2023-10-19T10:55:22;4.05;;;2.90;;
22334;SDS011;11335;43.848;25.958;2023-10-19T10:58:08;4.85;;;3.22;;
22334;SDS011;11335;43.848;25.958;2023-10-19T11:00:54;4.28;;;2.80;;
22334;SDS011;11335;43.848;25.958;2023-10-19T11:03:40;3.72;;;2.70;;
22334;SDS011;11335;43.848;25.958;2023-10-19T11:06:26;3.35;;;2.60;;
22334;SDS011;11335;43.848;25.958;2023-10-19T11:09:11;5.88;;;3.80;;
22334;SDS011;11335;43.848;25.958;2023-10-19T11:11:57;7.10;;;2.90;;
22334;SDS011;11335;43.848;25.958;2023-10-19T11:14:55;6.20;;;2.78;;
22334;SDS011;11335;43.848;25.958;2023-10-19T11:17:43;3.13;;;2.47;;
22334;SDS011;11335;43.848;25.958;2023-10-19T11:20:30;3.40;;;2.60;;
22334;SDS011;11335;43.848;25.958;2023-10-19T11:23:16;5.65;;;3.33;;
22334;SDS011;11335;43.848;25.958;2023-10-19T11:26:02;7.75;;;3.13;;
22334;SDS011;11335;43.848;25.958;2023-10-19T11:28:57;3.90;;;3.47;;
22334;SDS011;11335;43.848;25.958;2023-10-19T11:31:56;12.93;;;3.50;;
22334;SDS011;11335;43.848;25.958;2023-10-19T11:34:41;12.38;;;3.40;;
22334;SDS011;11335;43.848;25.958;2023-10-19T11:37:29;6.32;;;3.30;;
22334;SDS011;11335;43.848;25.958;2023-10-19T11:40:15;5.22;;;2.80;;
22334;SDS011;11335;43.848;25.958;2023-10-19T11:43:01;4.32;;;3.05;;
22334;SDS011;11335;43.848;25.958;2023-10-19T11:45:46;4.53;;;3.10;;
22334;SDS011;11335;43.848;25.958;2023-10-19T11:48:33;4.50;;;3.20;;
22334;SDS011;11335;43.848;25.958;2023-10-19T11:51:18;8.55;;;3.08;;
22334;SDS011;11335;43.848;25.958;2023-10-19T11:54:05;4.85;;;3.63;;
22334;SDS011;11335;43.848;25.958;2023-10-19T11:56:53;4.35;;;3.40;;
22334;SDS011;11335;43.848;25.958;2023-10-19T11:59:39;3.90;;;2.97;;
22334;SDS011;11335;43.848;25.958;2023-10-19T12:02:27;4.43;;;3.30;;
22334;SDS011;11335;43.848;25.958;2023-10-19T12:05:13;7.80;;;3.63;;
22334;SDS011;11335;43.848;25.958;2023-10-19T12:07:59;7.20;;;3.65;;
22334;SDS011;11335;43.848;25.958;2023-10-19T12:10:44;5.43;;;3.22;;
22334;SDS011;11335;43.848;25.958;2023-10-19T12:13:30;4.85;;;3.10;;
22334;SDS011;11335;43.848;25.958;2023-10-19T12:16:16;4.38;;;3.05;;
22334;SDS011;11335;43.848;25.958;2023-10-19T12:19:02;4.68;;;2.90;;
22334;SDS011;11335;43.848;25.958;2023-10-19T12:21:48;5.32;;;3.05;;
22334;SDS011;11335;43.848;25.958;2023-10-19T12:24:35;3.35;;;2.90;;
22334;SDS011;11335;43.848;25.958;2023-10-19T12:27:24;3.58;;;3.08;;
22334;SDS011;11335;43.848;25.958;2023-10-19T12:30:10;6.90;;;3.50;;
22334;SDS011;11335;43.848;25.958;2023-10-19T12:33:04;4.95;;;3.55;;
22334;SDS011;11335;43.848;25.958;2023-10-19T12:35:56;8.02;;;3.20;;
22334;SDS011;11335;43.848;25.958;2023-10-19T12:38:42;6.63;;;3.55;;
22334;SDS011;11335;43.848;25.958;2023-10-19T12:41:28;5.68;;;3.50;;
22334;SDS011;11335;43.848;25.958;2023-10-19T12:44:14;6.13;;;3.60;;
22334;SDS011;11335;43.848;25.958;2023-10-19T12:47:00;6.68;;;3.33;;
22334;SDS011;11335;43.848;25.958;2023-10-19T12:49:46;5.60;;;3.70;;
22334;SDS011;11335;43.848;25.958;2023-10-19T12:52:32;6.00;;;3.42;;
22334;SDS011;11335;43.848;25.958;2023-10-19T12:55:21;7.13;;;3.83;;
22334;SDS011;11335;43.848;25.958;2023-10-19T12:58:06;4.57;;;3.45;;
22334;SDS011;11335;43.848;25.958;2023-10-19T13:00:53;13.52;;;5.00;;
22334;SDS011;11335;43.848;25.958;2023-10-19T13:03:39;5.40;;;3.38;;
22334;SDS011;11335;43.848;25.958;2023-10-19T13:06:25;5.80;;;4.15;;
22334;SDS011;11335;43.848;25.958;2023-10-19T13:09:14;4.97;;;3.83;;
22334;SDS011;11335;43.848;25.958;2023-10-19T13:12:01;11.93;;;4.10;;
22334;SDS011;11335;43.848;25.958;2023-10-19T13:14:46;9.90;;;4.30;;
22334;SDS011;11335;43.848;25.958;2023-10-19T13:17:32;8.13;;;4.10;;
22334;SDS011;11335;43.848;25.958;2023-10-19T13:20:18;6.80;;;4.32;;
22334;SDS011;11335;43.848;25.958;2023-10-19T13:23:04;9.23;;;4.85;;
22334;SDS011;11335;43.848;25.958;2023-10-19T13:25:52;7.05;;;3.95;;
22334;SDS011;11335;43.848;25.958;2023-10-19T13:28:53;6.35;;;4.03;;
22334;SDS011;11335;43.848;25.958;2023-10-19T13:31:41;4.32;;;3.25;;
22334;SDS011;11335;43.848;25.958;2023-10-19T13:34:26;7.35;;;4.25;;
22334;SDS011;11335;43.848;25.958;2023-10-19T13:37:12;6.30;;;4.13;;
22334;SDS011;11335;43.848;25.958;2023-10-19T13:39:58;7.25;;;4.90;;
22334;SDS011;11335;43.848;25.958;2023-10-19T13:42:44;9.80;;;5.20;;
22334;SDS011;11335;43.848;25.958;2023-10-19T13:45:32;6.38;;;3.75;;
22334;SDS011;11335;43.848;25.958;2023-10-19T13:48:21;4.25;;;3.00;;
22334;SDS011;11335;43.848;25.958;2023-10-19T13:51:07;6.35;;;2.95;;
22334;SDS011;11335;43.848;25.958;2023-10-19T13:53:58;3.72;;;2.83;;
22334;SDS011;11335;43.848;25.958;2023-10-19T13:56:44;5.63;;;3.15;;
22334;SDS011;11335;43.848;25.958;2023-10-19T13:59:29;9.00;;;3.10;;
22334;SDS011;11335;43.848;25.958;2023-10-19T14:02:15;5.05;;;3.17;;
22334;SDS011;11335;43.848;25.958;2023-10-19T14:05:00;4.32;;;2.70;;
22334;SDS011;11335;43.848;25.958;2023-10-19T14:07:46;6.68;;;3.08;;
22334;SDS011;11335;43.848;25.958;2023-10-19T14:10:32;5.78;;;3.00;;
22334;SDS011;11335;43.848;25.958;2023-10-19T14:13:18;5.82;;;3.85;;
22334;SDS011;11335;43.848;25.958;2023-10-19T14:16:05;9.80;;;3.38;;
22334;SDS011;11335;43.848;25.958;2023-10-19T14:18:51;5.38;;;3.63;;
22334;SDS011;11335;43.848;25.958;2023-10-19T14:21:37;6.47;;;3.67;;
22334;SDS011;11335;43.848;25.958;2023-10-19T14:24:25;13.05;;;4.25;;
22334;SDS011;11335;43.848;25.958;2023-10-19T14:27:11;15.25;;;8.63;;
22334;SDS011;11335;43.848;25.958;2023-10-19T14:29:57;7.20;;;4.45;;
22334;SDS011;11335;43.848;25.958;2023-10-19T14:32:43;8.57;;;3.47;;
22334;SDS011;11335;43.848;25.958;2023-10-19T14:35:29;9.80;;;4.20;;
22334;SDS011;11335;43.848;25.958;2023-10-19T14:38:17;7.93;;;3.40;;
22334;SDS011;11335;43.848;25.958;2023-10-19T14:41:04;6.35;;;4.10;;
22334;SDS011;11335;43.848;25.958;2023-10-19T14:43:50;6.10;;;3.67;;
22334;SDS011;11335;43.848;25.958;2023-10-19T14:46:36;7.53;;;4.10;;
22334;SDS011;11335;43.848;25.958;2023-10-19T14:49:21;8.65;;;3.90;;
22334;SDS011;11335;43.848;25.958;2023-10-19T14:52:07;7.28;;;3.90;;
22334;SDS011;11335;43.848;25.958;2023-10-19T14:54:52;6.90;;;3.97;;
22334;SDS011;11335;43.848;25.958;2023-10-19T14:57:39;15.05;;;5.80;;
22334;SDS011;11335;43.848;25.958;2023-10-19T15:00:26;24.27;;;14.18;;
22334;SDS011;11335;43.848;25.958;2023-10-19T15:03:18;20.92;;;9.75;;
22334;SDS011;11335;43.848;25.958;2023-10-19T15:06:04;24.17;;;11.80;;
22334;SDS011;11335;43.848;25.958;2023-10-19T15:08:52;21.35;;;9.77;;
22334;SDS011;11335;43.848;25.958;2023-10-19T15:11:37;10.23;;;6.32;;
22334;SDS011;11335;43.848;25.958;2023-10-19T15:14:23;17.27;;;6.03;;
22334;SDS011;11335;43.848;25.958;2023-10-19T15:17:08;11.68;;;5.15;;
22334;SDS011;11335;43.848;25.958;2023-10-19T15:19:54;12.35;;;5.00;;
22334;SDS011;11335;43.848;25.958;2023-10-19T15:22:40;18.70;;;6.03;;
22334;SDS011;11335;43.848;25.958;2023-10-19T15:25:26;18.50;;;5.18;;
22334;SDS011;11335;43.848;25.958;2023-10-19T15:28:12;13.05;;;6.20;;
22334;SDS011;11335;43.848;25.958;2023-10-19T15:30:57;12.30;;;5.60;;
22334;SDS011;11335;43.848;25.958;2023-10-19T15:33:44;20.73;;;6.43;;
22334;SDS011;11335;43.848;25.958;2023-10-19T15:36:30;16.90;;;7.18;;
22334;SDS011;11335;43.848;25.958;2023-10-19T15:39:16;21.05;;;7.57;;
22334;SDS011;11335;43.848;25.958;2023-10-19T15:42:03;23.15;;;8.73;;
22334;SDS011;11335;43.848;25.958;2023-10-19T15:44:50;18.35;;;9.23;;
22334;SDS011;11335;43.848;25.958;2023-10-19T15:47:36;22.13;;;9.50;;
22334;SDS011;11335;43.848;25.958;2023-10-19T15:50:21;24.10;;;9.98;;
22334;SDS011;11335;43.848;25.958;2023-10-19T15:53:07;29.45;;;11.38;;
22334;SDS011;11335;43.848;25.958;2023-10-19T15:55:53;22.75;;;11.15;;
22334;SDS011;11335;43.848;25.958;2023-10-19T15:58:38;23.45;;;12.40;;
22334;SDS011;11335;43.848;25.958;2023-10-19T16:01:24;24.35;;;10.65;;
22334;SDS011;11335;43.848;25.958;2023-10-19T16:04:10;21.90;;;10.07;;
22334;SDS011;11335;43.848;25.958;2023-10-19T16:06:56;22.58;;;10.73;;
22334;SDS011;11335;43.848;25.958;2023-10-19T16:09:42;25.15;;;11.30;;
22334;SDS011;11335;43.848;25.958;2023-10-19T16:12:27;36.92;;;14.43;;
22334;SDS011;11335;43.848;25.958;2023-10-19T16:15:13;32.97;;;14.18;;
22334;SDS011;11335;43.848;25.958;2023-10-19T16:17:58;35.53;;;14.02;;
22334;SDS011;11335;43.848;25.958;2023-10-19T16:20:45;32.83;;;13.95;;
22334;SDS011;11335;43.848;25.958;2023-10-19T16:23:30;44.83;;;15.25;;
22334;SDS011;11335;43.848;25.958;2023-10-19T16:26:16;49.25;;;16.13;;
22334;SDS011;11335;43.848;25.958;2023-10-19T16:29:02;47.38;;;15.45;;
22334;SDS011;11335;43.848;25.958;2023-10-19T16:31:50;49.72;;;16.40;;